createdAt,value
2017-04-29T00:00:40.636Z,0
2017-04-29T00:01:40.685Z,0
2017-04-29T00:02:35.667Z,0
2017-04-29T00:03:30.722Z,0
2017-04-29T00:04:32.296Z,0
2017-04-29T00:05:26.757Z,0
2017-04-29T00:06:15.761Z,0
2017-04-29T00:07:10.857Z,0
2017-04-29T00:07:59.891Z,0
2017-04-29T00:08:53.884Z,0
2017-04-29T00:09:47.896Z,0
2017-04-29T00:10:36.987Z,0
2017-04-29T00:11:36.988Z,0
2017-04-29T00:12:25.003Z,0
2017-04-29T00:13:20.062Z,0
2017-04-29T00:14:09.066Z,0
2017-04-29T00:14:58.163Z,0
2017-04-29T00:15:46.183Z,0
2017-04-29T00:16:40.183Z,0
2017-04-29T00:17:28.183Z,0
2017-04-29T00:18:22.282Z,0
2017-04-29T00:19:22.366Z,0
2017-04-29T00:20:22.529Z,0
2017-04-29T00:21:22.411Z,0
2017-04-29T00:22:16.385Z,0
2017-04-29T00:23:17.390Z,0
2017-04-29T00:24:17.458Z,0
2017-04-29T00:25:12.466Z,0
2017-04-29T00:26:12.505Z,0
2017-04-29T00:27:06.527Z,0
2017-04-29T00:28:07.651Z,0
2017-04-29T00:29:07.610Z,0
2017-04-29T00:30:02.634Z,0
2017-04-29T00:30:51.678Z,0
2017-04-29T00:31:40.677Z,0
2017-04-29T00:32:29.666Z,0
2017-04-29T00:33:23.747Z,0
2017-04-29T00:34:18.768Z,0
2017-04-29T00:35:12.778Z,0
2017-04-29T00:36:06.839Z,0
2017-04-29T00:37:02.198Z,0
2017-04-29T00:37:50.882Z,0
2017-04-29T00:38:38.947Z,0
2017-04-29T00:39:27.036Z,0
2017-04-29T00:40:15.961Z,0
2017-04-29T00:41:04.048Z,0
2017-04-29T00:41:53.117Z,0
2017-04-29T00:42:42.147Z,0
2017-04-29T00:43:31.200Z,0
2017-04-29T00:44:19.174Z,0
2017-04-29T00:45:08.251Z,0
2017-04-29T00:45:56.306Z,0
2017-04-29T00:46:45.348Z,0
2017-04-29T00:47:39.355Z,0
2017-04-29T00:48:34.432Z,0
2017-04-29T00:49:23.374Z,0
2017-04-29T00:50:17.446Z,0
2017-04-29T00:51:12.485Z,0
2017-04-29T00:52:06.544Z,0
2017-04-29T00:53:01.574Z,0
2017-04-29T00:53:55.594Z,0
2017-04-29T00:54:51.043Z,0
2017-04-29T00:55:39.615Z,0
2017-04-29T00:56:28.659Z,0
2017-04-29T00:57:17.679Z,0
2017-04-29T00:58:12.696Z,0
2017-04-29T00:59:06.726Z,0
2017-04-29T01:00:01.794Z,0
2017-04-29T01:00:56.791Z,0
2017-04-29T01:01:44.830Z,0
2017-04-29T01:02:32.857Z,0
2017-04-29T01:03:26.883Z,0
2017-04-29T01:04:21.056Z,0
2017-04-29T01:05:15.989Z,0
2017-04-29T01:06:10.981Z,0
2017-04-29T01:06:59.051Z,0
2017-04-29T01:07:47.067Z,0
2017-04-29T01:08:35.133Z,0
2017-04-29T01:09:24.211Z,0
2017-04-29T01:10:12.267Z,0
2017-04-29T01:11:00.235Z,0
2017-04-29T01:12:00.317Z,0
2017-04-29T01:12:55.326Z,0
2017-04-29T01:13:50.327Z,0
2017-04-29T01:14:51.971Z,0
2017-04-29T01:15:51.374Z,0
2017-04-29T01:16:51.431Z,0
2017-04-29T01:17:40.440Z,0
2017-04-29T01:18:29.424Z,0
2017-04-29T01:19:18.493Z,0
2017-04-29T01:20:08.135Z,0
2017-04-29T01:21:08.572Z,0
2017-04-29T01:22:02.606Z,0
2017-04-29T01:22:50.665Z,0
2017-04-29T01:23:39.709Z,0
2017-04-29T01:24:28.696Z,0
2017-04-29T01:25:23.594Z,0
2017-04-29T01:26:11.794Z,0
2017-04-29T01:27:05.828Z,0
2017-04-29T01:27:53.798Z,0
2017-04-29T01:28:47.854Z,0
2017-04-29T01:29:35.900Z,0
2017-04-29T01:30:35.942Z,0
2017-04-29T01:31:23.988Z,0
2017-04-29T01:32:18.975Z,0
2017-04-29T01:33:07.095Z,0
2017-04-29T01:33:55.110Z,0
2017-04-29T01:34:44.089Z,0
2017-04-29T01:35:32.135Z,0
2017-04-29T01:36:20.205Z,0
2017-04-29T01:37:08.242Z,0
2017-04-29T01:37:57.258Z,0
2017-04-29T01:38:51.376Z,0
2017-04-29T01:39:39.354Z,0
2017-04-29T01:40:27.453Z,0
2017-04-29T01:41:16.369Z,0
2017-04-29T01:42:04.466Z,0
2017-04-29T01:42:52.568Z,0
2017-04-29T01:43:40.500Z,0
2017-04-29T01:44:28.628Z,0
2017-04-29T01:45:16.558Z,0
2017-04-29T01:46:10.672Z,0
2017-04-29T01:47:05.713Z,0
2017-04-29T01:48:05.695Z,0
2017-04-29T01:49:00.676Z,0
2017-04-29T01:49:49.765Z,0
2017-04-29T01:50:37.817Z,0
2017-04-29T01:51:32.840Z,0
2017-04-29T01:52:27.879Z,0
2017-04-29T01:53:15.877Z,0
2017-04-29T01:54:03.992Z,0
2017-04-29T01:54:52.493Z,0
2017-04-29T01:55:41.015Z,0
2017-04-29T01:56:29.080Z,0
2017-04-29T01:57:17.095Z,0
2017-04-29T01:58:06.296Z,0
2017-04-29T01:59:00.177Z,0
2017-04-29T02:00:00.153Z,0
2017-04-29T02:00:54.189Z,0
2017-04-29T02:01:55.228Z,0
2017-04-29T02:02:50.305Z,0
2017-04-29T02:03:45.337Z,0
2017-04-29T02:04:40.355Z,0
2017-04-29T02:05:35.350Z,0
2017-04-29T02:06:36.382Z,0
2017-04-29T02:07:36.412Z,0
2017-04-29T02:08:36.400Z,0
2017-04-29T02:09:31.494Z,0
2017-04-29T02:10:25.492Z,0
2017-04-29T02:11:25.554Z,0
2017-04-29T02:12:14.569Z,0
2017-04-29T02:13:08.608Z,0
2017-04-29T02:14:03.656Z,0
2017-04-29T02:15:04.072Z,0
2017-04-29T02:16:03.698Z,0
2017-04-29T02:16:57.703Z,0
2017-04-29T02:17:57.764Z,0
2017-04-29T02:18:52.738Z,0
2017-04-29T02:19:47.803Z,0
2017-04-29T02:20:35.890Z,0
2017-04-29T02:21:30.891Z,0
2017-04-29T02:22:19.905Z,0
2017-04-29T02:23:07.971Z,0
2017-04-29T02:23:57.002Z,0
2017-04-29T02:24:51.026Z,0
2017-04-29T02:25:40.071Z,0
2017-04-29T02:26:40.066Z,0
2017-04-29T02:27:29.098Z,0
2017-04-29T02:28:23.170Z,0
2017-04-29T02:29:18.179Z,0
2017-04-29T02:30:12.196Z,0
2017-04-29T02:31:01.275Z,0
2017-04-29T02:31:49.250Z,0
2017-04-29T02:32:37.342Z,0
2017-04-29T02:33:26.361Z,0
2017-04-29T02:34:20.375Z,0
2017-04-29T02:35:14.408Z,0
2017-04-29T02:36:03.474Z,0
2017-04-29T02:36:57.454Z,0
2017-04-29T02:37:58.508Z,0
2017-04-29T02:38:58.559Z,0
2017-04-29T02:39:58.601Z,0
2017-04-29T02:40:52.595Z,0
2017-04-29T02:41:52.648Z,0
2017-04-29T02:42:46.657Z,0
2017-04-29T02:43:35.703Z,0
2017-04-29T02:44:29.691Z,0
2017-04-29T02:45:17.770Z,0
2017-04-29T02:46:05.834Z,0
2017-04-29T02:46:53.865Z,0
2017-04-29T02:47:41.918Z,0
2017-04-29T02:48:35.906Z,0
2017-04-29T02:49:29.951Z,0
2017-04-29T02:50:17.961Z,0
2017-04-29T02:51:06.000Z,0
2017-04-29T02:52:01.047Z,0
2017-04-29T02:52:55.128Z,0
2017-04-29T02:53:49.098Z,0
2017-04-29T02:54:43.169Z,0
2017-04-29T02:55:43.157Z,0
2017-04-29T02:56:32.192Z,0
2017-04-29T02:57:21.229Z,0
2017-04-29T02:58:10.267Z,0
2017-04-29T02:59:10.266Z,0
2017-04-29T03:00:04.333Z,0
2017-04-29T03:00:58.424Z,0
2017-04-29T03:01:53.408Z,0
2017-04-29T03:02:42.601Z,0
2017-04-29T03:03:30.469Z,0
2017-04-29T03:04:18.505Z,0
2017-04-29T03:05:12.532Z,0
2017-04-29T03:06:07.980Z,0
2017-04-29T03:06:55.617Z,0
2017-04-29T03:07:49.653Z,0
2017-04-29T03:08:55.694Z,0
2017-04-29T03:09:56.408Z,0
2017-04-29T03:10:49.700Z,0
2017-04-29T03:11:44.757Z,0
2017-04-29T03:12:33.794Z,0
2017-04-29T03:13:22.846Z,0
2017-04-29T03:14:10.814Z,0
2017-04-29T03:14:58.928Z,0
2017-04-29T03:15:52.876Z,0
2017-04-29T03:16:42.003Z,0
2017-04-29T03:17:36.001Z,0
2017-04-29T03:18:30.237Z,0
2017-04-29T03:19:30.111Z,0
2017-04-29T03:20:25.223Z,0
2017-04-29T03:21:31.122Z,0
2017-04-29T03:22:31.104Z,0
2017-04-29T03:23:32.162Z,0
2017-04-29T03:24:26.219Z,4
2017-04-29T03:25:26.201Z,4
2017-04-29T03:26:21.270Z,4
2017-04-29T03:27:21.267Z,0
2017-04-29T03:28:21.349Z,4
2017-04-29T03:29:21.367Z,4
2017-04-29T03:30:21.455Z,4
2017-04-29T03:31:27.422Z,4
2017-04-29T03:32:22.443Z,4
2017-04-29T03:33:22.426Z,8
2017-04-29T03:34:17.463Z,8
2017-04-29T03:35:12.522Z,8
2017-04-29T03:36:13.472Z,8
2017-04-29T03:37:13.538Z,12
2017-04-29T03:38:13.579Z,16
2017-04-29T03:39:13.705Z,16
2017-04-29T03:40:13.638Z,20
2017-04-29T03:41:13.618Z,20
2017-04-29T03:42:13.674Z,24
2017-04-29T03:43:13.646Z,28
2017-04-29T03:44:13.723Z,32
2017-04-29T03:45:13.753Z,36
2017-04-29T03:46:13.751Z,44
2017-04-29T03:47:08.733Z,48
2017-04-29T03:48:02.783Z,48
2017-04-29T03:49:02.843Z,56
2017-04-29T03:49:57.888Z,64
2017-04-29T03:50:52.851Z,68
2017-04-29T03:51:52.948Z,72
2017-04-29T03:52:47.990Z,80
2017-04-29T03:53:42.992Z,84
2017-04-29T03:54:37.021Z,96
2017-04-29T03:55:38.008Z,104
2017-04-29T03:56:33.069Z,116
2017-04-29T03:57:33.118Z,124
2017-04-29T03:58:33.136Z,140
2017-04-29T03:59:27.154Z,152
2017-04-29T04:00:28.176Z,168
2017-04-29T04:01:29.197Z,188
2017-04-29T04:02:29.169Z,212
2017-04-29T04:03:29.280Z,232
2017-04-29T04:04:29.253Z,256
2017-04-29T04:05:29.319Z,280
2017-04-29T04:06:29.353Z,308
2017-04-29T04:07:29.359Z,336
2017-04-29T04:08:29.417Z,364
2017-04-29T04:09:29.389Z,400
2017-04-29T04:10:29.424Z,432
2017-04-29T04:11:29.458Z,456
2017-04-29T04:12:29.477Z,484
2017-04-29T04:13:29.561Z,512
2017-04-29T04:14:29.599Z,544
2017-04-29T04:15:29.550Z,584
2017-04-29T04:16:29.569Z,616
2017-04-29T04:17:29.639Z,656
2017-04-29T04:18:29.630Z,684
2017-04-29T04:19:29.675Z,724
2017-04-29T04:20:18.710Z,760
2017-04-29T04:21:12.746Z,804
2017-04-29T04:22:12.757Z,848
2017-04-29T04:23:12.803Z,880
2017-04-29T04:24:07.877Z,920
2017-04-29T04:25:01.872Z,960
2017-04-29T04:25:55.905Z,996
2017-04-29T04:26:51.105Z,1024
2017-04-29T04:27:50.951Z,1052
2017-04-29T04:28:44.990Z,1092
2017-04-29T04:29:33.002Z,1124
2017-04-29T04:30:21.074Z,1156
2017-04-29T04:31:10.103Z,1188
2017-04-29T04:32:10.148Z,1208
2017-04-29T04:33:05.176Z,1232
2017-04-29T04:33:53.206Z,1260
2017-04-29T04:34:42.243Z,1304
2017-04-29T04:35:42.259Z,1376
2017-04-29T04:36:30.303Z,1420
2017-04-29T04:37:19.364Z,1452
2017-04-29T04:38:07.447Z,1496
2017-04-29T04:38:56.417Z,1536
2017-04-29T04:39:46.015Z,1576
2017-04-29T04:40:34.470Z,1628
2017-04-29T04:41:22.521Z,1672
2017-04-29T04:42:16.541Z,1732
2017-04-29T04:43:10.654Z,1812
2017-04-29T04:43:58.635Z,1884
2017-04-29T04:44:46.652Z,1928
2017-04-29T04:45:35.697Z,2016
2017-04-29T04:46:23.765Z,2076
2017-04-29T04:47:12.844Z,2136
2017-04-29T04:48:00.810Z,2184
2017-04-29T04:48:48.897Z,2224
2017-04-29T04:49:36.925Z,2260
2017-04-29T04:50:25.939Z,2300
2017-04-29T04:51:14.995Z,2340
2017-04-29T04:52:02.993Z,2388
2017-04-29T04:52:51.072Z,2440
2017-04-29T04:53:40.074Z,2516
2017-04-29T04:54:28.134Z,2564
2017-04-29T04:55:16.172Z,2616
2017-04-29T04:56:05.184Z,2668
2017-04-29T04:56:53.224Z,2732
2017-04-29T04:57:41.326Z,2788
2017-04-29T04:58:30.286Z,2844
2017-04-29T04:59:24.399Z,2916
2017-04-29T05:00:12.457Z,3012
2017-04-29T05:01:00.439Z,3124
2017-04-29T05:01:49.532Z,3228
2017-04-29T05:02:37.525Z,3280
2017-04-29T05:03:26.571Z,3344
2017-04-29T05:04:14.890Z,3400
2017-04-29T05:05:02.619Z,3424
2017-04-29T05:05:50.674Z,3492
2017-04-29T05:06:39.727Z,3564
2017-04-29T05:07:27.728Z,3628
2017-04-29T05:08:21.732Z,3716
2017-04-29T05:09:09.784Z,3800
2017-04-29T05:09:57.876Z,3884
2017-04-29T05:10:46.883Z,3980
2017-04-29T05:11:34.986Z,4076
2017-04-29T05:12:24.100Z,4144
2017-04-29T05:13:11.986Z,4204
2017-04-29T05:14:00.059Z,4264
2017-04-29T05:14:49.129Z,4356
2017-04-29T05:15:37.128Z,4468
2017-04-29T05:16:26.179Z,4568
2017-04-29T05:17:14.332Z,4628
2017-04-29T05:18:02.276Z,4656
2017-04-29T05:18:51.282Z,4668
2017-04-29T05:19:39.357Z,4704
2017-04-29T05:20:28.363Z,4756
2017-04-29T05:21:22.452Z,4844
2017-04-29T05:22:22.437Z,4960
2017-04-29T05:23:11.505Z,5012
2017-04-29T05:24:06.500Z,5112
2017-04-29T05:25:06.567Z,5256
2017-04-29T05:26:01.568Z,5384
2017-04-29T05:26:56.637Z,5488
2017-04-29T05:27:50.664Z,5548
2017-04-29T05:28:51.671Z,5564
2017-04-29T05:29:51.769Z,5600
2017-04-29T05:30:46.720Z,5680
2017-04-29T05:31:46.760Z,5788
2017-04-29T05:32:46.809Z,6064
2017-04-29T05:33:46.989Z,6356
2017-04-29T05:34:40.810Z,6596
2017-04-29T05:35:40.885Z,6812
2017-04-29T05:36:35.895Z,7028
2017-04-29T05:37:30.983Z,7208
2017-04-29T05:38:24.988Z,7484
2017-04-29T05:39:26.019Z,7632
2017-04-29T05:40:32.019Z,7784
2017-04-29T05:41:32.104Z,7988
2017-04-29T05:42:32.105Z,8200
2017-04-29T05:43:26.103Z,8368
2017-04-29T05:44:27.187Z,8528
2017-04-29T05:45:22.197Z,8724
2017-04-29T05:46:22.257Z,9064
2017-04-29T05:47:16.215Z,9372
2017-04-29T05:48:04.307Z,9532
2017-04-29T05:48:53.293Z,9712
2017-04-29T05:49:42.803Z,9896
2017-04-29T05:50:30.424Z,10156
2017-04-29T05:51:19.482Z,10432
2017-04-29T05:52:14.493Z,10380
2017-04-29T05:53:14.525Z,10464
2017-04-29T05:54:15.140Z,10740
2017-04-29T05:55:14.582Z,11188
2017-04-29T05:56:03.630Z,11460
2017-04-29T05:56:57.680Z,11740
2017-04-29T05:57:45.727Z,11752
2017-04-29T05:58:34.747Z,11624
2017-04-29T05:59:22.768Z,11616
2017-04-29T06:00:10.984Z,11752
2017-04-29T06:00:59.925Z,11912
2017-04-29T06:01:47.897Z,12192
2017-04-29T06:02:35.961Z,12476
2017-04-29T06:03:23.980Z,12752
2017-04-29T06:04:18.011Z,13152
2017-04-29T06:05:07.090Z,13436
2017-04-29T06:06:07.168Z,13536
2017-04-29T06:07:07.106Z,13440
2017-04-29T06:08:01.182Z,13204
2017-04-29T06:09:02.207Z,13372
2017-04-29T06:10:03.233Z,13868
2017-04-29T06:10:58.289Z,14248
2017-04-29T06:11:58.594Z,14696
2017-04-29T06:12:53.313Z,15036
2017-04-29T06:13:53.397Z,15012
2017-04-29T06:14:48.952Z,15204
2017-04-29T06:15:37.513Z,15540
2017-04-29T06:16:31.502Z,16352
2017-04-29T06:17:19.827Z,16448
2017-04-29T06:18:08.571Z,16960
2017-04-29T06:19:02.625Z,17152
2017-04-29T06:19:57.651Z,17376
2017-04-29T06:20:57.702Z,17536
2017-04-29T06:21:51.687Z,17536
2017-04-29T06:22:52.280Z,16992
2017-04-29T06:23:51.828Z,16384
2017-04-29T06:24:51.794Z,15396
2017-04-29T06:25:40.882Z,14980
2017-04-29T06:26:29.903Z,15128
2017-04-29T06:27:18.973Z,15576
2017-04-29T06:28:07.332Z,15836
2017-04-29T06:28:56.064Z,16128
2017-04-29T06:29:50.412Z,16288
2017-04-29T06:30:50.079Z,16288
2017-04-29T06:31:44.152Z,16352
2017-04-29T06:32:38.222Z,16544
2017-04-29T06:33:38.618Z,16800
2017-04-29T06:34:38.260Z,16928
2017-04-29T06:35:33.327Z,17120
2017-04-29T06:36:27.327Z,17216
2017-04-29T06:37:21.407Z,17632
2017-04-29T06:38:15.439Z,17696
2017-04-29T06:39:09.954Z,18112
2017-04-29T06:40:03.483Z,17984
2017-04-29T06:40:58.524Z,18336
2017-04-29T06:41:52.605Z,18496
2017-04-29T06:42:46.594Z,18464
2017-04-29T06:43:34.676Z,18592
2017-04-29T06:44:29.954Z,18528
2017-04-29T06:45:24.716Z,18400
2017-04-29T06:46:13.765Z,18528
2017-04-29T06:47:02.791Z,18656
2017-04-29T06:47:50.825Z,18560
2017-04-29T06:48:44.882Z,18688
2017-04-29T06:49:39.246Z,18976
2017-04-29T06:50:33.971Z,19296
2017-04-29T06:51:23.004Z,19648
2017-04-29T06:52:23.080Z,20032
2017-04-29T06:53:18.117Z,20288
2017-04-29T06:54:12.135Z,21024
2017-04-29T06:55:01.869Z,21216
2017-04-29T06:55:50.194Z,20928
2017-04-29T06:56:39.258Z,20960
2017-04-29T06:57:28.339Z,20800
2017-04-29T06:58:28.314Z,20288
2017-04-29T06:59:17.912Z,20448
2017-04-29T07:00:05.698Z,20128
2017-04-29T07:01:05.496Z,20320
2017-04-29T07:01:59.487Z,20608
2017-04-29T07:02:47.573Z,20992
2017-04-29T07:03:41.577Z,22592
2017-04-29T07:04:29.677Z,21632
2017-04-29T07:05:30.953Z,21024
2017-04-29T07:06:30.737Z,24384
2017-04-29T07:07:18.755Z,25152
2017-04-29T07:08:12.803Z,21632
2017-04-29T07:09:01.872Z,50816
2017-04-29T07:09:51.280Z,47584
2017-04-29T07:10:39.051Z,51680
2017-04-29T07:11:32.976Z,52672
2017-04-29T07:12:22.038Z,40032
2017-04-29T07:13:17.076Z,61088
2017-04-29T07:14:11.520Z,62368
2017-04-29T07:15:00.177Z,48416
2017-04-29T07:15:54.226Z,31200
2017-04-29T07:16:49.297Z,37824
2017-04-29T07:17:43.284Z,40480
2017-04-29T07:18:37.290Z,45024
2017-04-29T07:19:37.426Z,23808
2017-04-29T07:20:31.425Z,56832
2017-04-29T07:21:20.466Z,58112
2017-04-29T07:22:20.489Z,53728
2017-04-29T07:23:15.553Z,60800
2017-04-29T07:24:09.590Z,35616
2017-04-29T07:25:03.630Z,32864
2017-04-29T07:25:58.712Z,35648
2017-04-29T07:26:52.778Z,38592
2017-04-29T07:27:52.791Z,80832
2017-04-29T07:28:41.837Z,37920
2017-04-29T07:29:35.899Z,46720
2017-04-29T07:30:30.894Z,37632
2017-04-29T07:31:30.957Z,33728
2017-04-29T07:32:25.042Z,32352
2017-04-29T07:33:19.048Z,29056
2017-04-29T07:34:13.647Z,28704
2017-04-29T07:35:08.118Z,26880
2017-04-29T07:36:08.180Z,24960
2017-04-29T07:37:02.217Z,24896
2017-04-29T07:37:51.280Z,25536
2017-04-29T07:38:45.330Z,21344
2017-04-29T07:39:39.357Z,20672
2017-04-29T07:40:28.437Z,20512
2017-04-29T07:41:28.450Z,20416
2017-04-29T07:42:22.516Z,20064
2017-04-29T07:43:23.671Z,20672
2017-04-29T07:44:23.621Z,21984
2017-04-29T07:45:18.624Z,22496
2017-04-29T07:46:18.699Z,22336
2017-04-29T07:47:07.752Z,23584
2017-04-29T07:47:55.788Z,24992
2017-04-29T07:48:49.903Z,25408
2017-04-29T07:49:37.896Z,25760
2017-04-29T07:50:31.924Z,25792
2017-04-29T07:51:31.979Z,26144
2017-04-29T07:52:26.995Z,26112
2017-04-29T07:53:27.062Z,27552
2017-04-29T07:54:16.687Z,29760
2017-04-29T07:55:11.133Z,30976
2017-04-29T07:56:05.179Z,31840
2017-04-29T07:56:54.188Z,89376
2017-04-29T07:57:54.278Z,41952
2017-04-29T07:58:42.294Z,52032
2017-04-29T07:59:31.417Z,33408
2017-04-29T08:00:26.385Z,31776
2017-04-29T08:01:21.464Z,36384
2017-04-29T08:02:15.505Z,37440
2017-04-29T08:03:04.518Z,63520
2017-04-29T08:03:53.609Z,45248
2017-04-29T08:04:48.751Z,45568
2017-04-29T08:05:37.704Z,39072
2017-04-29T08:06:32.676Z,39552
2017-04-29T08:07:26.745Z,30560
2017-04-29T08:08:21.796Z,23680
2017-04-29T08:09:17.300Z,22592
2017-04-29T08:10:05.929Z,22784
2017-04-29T08:11:00.922Z,22016
2017-04-29T08:11:49.993Z,21344
2017-04-29T08:12:39.062Z,21344
2017-04-29T08:13:33.118Z,22176
2017-04-29T08:14:22.101Z,23616
2017-04-29T08:15:23.215Z,27584
2017-04-29T08:16:18.205Z,39840
2017-04-29T08:17:07.300Z,33664
2017-04-29T08:18:02.335Z,38688
2017-04-29T08:18:51.401Z,39584
2017-04-29T08:19:40.408Z,73536
2017-04-29T08:20:29.517Z,42464
2017-04-29T08:21:18.518Z,37216
2017-04-29T08:22:13.019Z,34144
2017-04-29T08:23:00.609Z,31648
2017-04-29T08:23:48.660Z,28160
2017-04-29T08:24:50.117Z,25312
2017-04-29T08:25:50.745Z,23072
2017-04-29T08:26:39.844Z,20864
2017-04-29T08:27:27.835Z,18944
2017-04-29T08:28:21.918Z,16864
2017-04-29T08:29:09.921Z,15424
2017-04-29T08:29:58.983Z,14892
2017-04-29T08:30:47.022Z,14676
2017-04-29T08:31:42.210Z,15172
2017-04-29T08:32:30.087Z,16192
2017-04-29T08:33:19.196Z,17056
2017-04-29T08:34:07.204Z,18368
2017-04-29T08:35:01.248Z,19680
2017-04-29T08:35:49.315Z,20864
2017-04-29T08:36:50.358Z,22528
2017-04-29T08:37:38.394Z,24000
2017-04-29T08:38:27.471Z,24960
2017-04-29T08:39:21.445Z,25600
2017-04-29T08:40:16.500Z,26912
2017-04-29T08:41:10.588Z,28128
2017-04-29T08:41:59.667Z,29600
2017-04-29T08:42:47.686Z,30528
2017-04-29T08:43:47.743Z,30720
2017-04-29T08:44:42.762Z,31264
2017-04-29T08:45:37.798Z,32320
2017-04-29T08:46:26.827Z,31872
2017-04-29T08:47:15.127Z,30912
2017-04-29T08:48:08.922Z,31104
2017-04-29T08:48:56.994Z,31552
2017-04-29T08:49:51.556Z,32032
2017-04-29T08:50:45.098Z,32416
2017-04-29T08:51:39.101Z,33504
2017-04-29T08:52:33.167Z,34016
2017-04-29T08:53:27.181Z,33504
2017-04-29T08:54:16.255Z,32672
2017-04-29T08:55:10.279Z,31584
2017-04-29T08:56:04.352Z,30688
2017-04-29T08:56:53.376Z,29952
2017-04-29T08:57:47.469Z,29056
2017-04-29T08:58:42.491Z,28256
2017-04-29T08:59:36.487Z,27680
2017-04-29T09:00:24.556Z,26848
2017-04-29T09:01:24.599Z,26112
2017-04-29T09:02:13.127Z,24896
2017-04-29T09:03:07.823Z,24064
2017-04-29T09:04:01.706Z,23904
2017-04-29T09:04:55.804Z,24032
2017-04-29T09:05:55.830Z,24192
2017-04-29T09:06:50.845Z,24320
2017-04-29T09:07:44.912Z,24960
2017-04-29T09:08:38.998Z,25312
2017-04-29T09:09:33.015Z,25504
2017-04-29T09:10:34.047Z,26048
2017-04-29T09:11:29.116Z,26624
2017-04-29T09:12:17.135Z,27328
2017-04-29T09:13:11.213Z,28032
2017-04-29T09:14:00.244Z,29152
2017-04-29T09:14:49.298Z,29536
2017-04-29T09:15:44.338Z,30528
2017-04-29T09:16:33.304Z,30912
2017-04-29T09:17:21.403Z,32064
2017-04-29T09:18:10.470Z,29824
2017-04-29T09:18:59.560Z,31680
2017-04-29T09:19:54.079Z,32096
2017-04-29T09:20:47.581Z,30464
2017-04-29T09:21:41.630Z,32000
2017-04-29T09:22:35.689Z,31936
2017-04-29T09:23:23.760Z,36864
2017-04-29T09:24:12.772Z,36480
2017-04-29T09:25:12.799Z,37440
2017-04-29T09:26:00.878Z,35200
2017-04-29T09:27:00.905Z,37472
2017-04-29T09:27:54.915Z,73824
2017-04-29T09:28:49.997Z,38144
2017-04-29T09:29:49.980Z,33984
2017-04-29T09:30:50.073Z,36256
2017-04-29T09:31:44.109Z,62112
2017-04-29T09:32:38.167Z,30944
2017-04-29T09:33:32.218Z,80768
2017-04-29T09:34:20.757Z,86976
2017-04-29T09:35:09.275Z,79200
2017-04-29T09:36:03.389Z,66080
2017-04-29T09:36:57.409Z,74272
2017-04-29T09:37:52.390Z,71552
2017-04-29T09:38:40.493Z,78976
2017-04-29T09:39:40.507Z,79040
2017-04-29T09:40:35.593Z,81440
2017-04-29T09:41:29.619Z,83904
2017-04-29T09:42:23.695Z,85984
2017-04-29T09:43:17.709Z,87296
2017-04-29T09:44:17.785Z,88736
2017-04-29T09:45:05.800Z,88032
2017-04-29T09:45:59.895Z,87456
2017-04-29T09:46:53.912Z,86624
2017-04-29T09:47:41.965Z,86304
2017-04-29T09:48:31.041Z,85856
2017-04-29T09:49:20.675Z,82208
2017-04-29T09:50:14.665Z,78528
2017-04-29T09:51:09.167Z,36032
2017-04-29T09:52:04.172Z,20000
2017-04-29T09:52:52.453Z,21280
2017-04-29T09:53:41.358Z,86016
2017-04-29T09:54:29.401Z,88192
2017-04-29T09:55:24.479Z,30400
2017-04-29T09:56:25.487Z,33920
2017-04-29T09:57:14.594Z,34528
2017-04-29T09:58:03.633Z,31296
2017-04-29T09:58:52.693Z,78432
2017-04-29T09:59:41.725Z,58624
2017-04-29T10:00:30.779Z,24224
2017-04-29T10:01:19.869Z,20224
2017-04-29T10:02:07.901Z,17632
2017-04-29T10:03:07.957Z,15236
2017-04-29T10:04:02.001Z,13976
2017-04-29T10:04:56.020Z,12728
2017-04-29T10:05:45.079Z,12192
2017-04-29T10:06:34.186Z,11904
2017-04-29T10:07:29.189Z,12208
2017-04-29T10:08:18.316Z,12724
2017-04-29T10:09:07.340Z,13776
2017-04-29T10:09:56.355Z,15136
2017-04-29T10:10:56.443Z,17088
2017-04-29T10:11:51.464Z,18528
2017-04-29T10:12:40.517Z,19712
2017-04-29T10:13:29.579Z,20736
2017-04-29T10:14:23.665Z,21504
2017-04-29T10:15:18.662Z,22368
2017-04-29T10:16:12.697Z,23168
2017-04-29T10:17:06.785Z,24288
2017-04-29T10:18:06.770Z,25664
2017-04-29T10:19:06.884Z,27488
2017-04-29T10:19:56.249Z,94752
2017-04-29T10:20:49.924Z,40512
2017-04-29T10:21:37.981Z,32256
2017-04-29T10:22:26.999Z,34752
2017-04-29T10:23:27.101Z,33152
2017-04-29T10:24:15.187Z,32576
2017-04-29T10:25:15.159Z,32960
2017-04-29T10:26:04.207Z,35328
2017-04-29T10:26:53.301Z,36864
2017-04-29T10:27:47.310Z,35264
2017-04-29T10:28:42.365Z,40448
2017-04-29T10:29:37.483Z,48608
2017-04-29T10:30:25.456Z,44576
2017-04-29T10:31:19.530Z,0
2017-04-29T10:32:13.536Z,107936
2017-04-29T10:33:13.579Z,105984
2017-04-29T10:34:01.684Z,105024
2017-04-29T10:34:56.231Z,100928
2017-04-29T10:35:49.726Z,24032
2017-04-29T10:36:43.739Z,98624
2017-04-29T10:37:43.840Z,97824
2017-04-29T10:38:32.880Z,99104
2017-04-29T10:39:28.005Z,100640
2017-04-29T10:40:22.080Z,104544
2017-04-29T10:41:11.047Z,105792
2017-04-29T10:42:00.128Z,127360
2017-04-29T10:42:48.161Z,108160
2017-04-29T10:43:42.219Z,37920
2017-04-29T10:44:30.296Z,39296
2017-04-29T10:45:24.294Z,39424
2017-04-29T10:46:24.358Z,39680
2017-04-29T10:47:12.388Z,38496
2017-04-29T10:48:12.516Z,39008
2017-04-29T10:49:01.546Z,38624
2017-04-29T10:49:55.555Z,33920
2017-04-29T10:50:50.668Z,32672
2017-04-29T10:51:44.674Z,31584
2017-04-29T10:52:38.769Z,30272
2017-04-29T10:53:27.804Z,29920
2017-04-29T10:54:22.480Z,30784
2017-04-29T10:55:16.888Z,31424
2017-04-29T10:56:17.420Z,32608
2017-04-29T10:57:11.038Z,34272
2017-04-29T10:58:11.103Z,35488
2017-04-29T10:59:06.127Z,36128
2017-04-29T11:00:01.187Z,37152
2017-04-29T11:00:55.198Z,120832
2017-04-29T11:01:49.622Z,116928
2017-04-29T11:02:43.317Z,111712
2017-04-29T11:03:43.375Z,35456
2017-04-29T11:04:37.462Z,66464
2017-04-29T11:05:37.476Z,29120
2017-04-29T11:06:26.536Z,26432
2017-04-29T11:07:20.815Z,25536
2017-04-29T11:08:09.630Z,24704
2017-04-29T11:09:03.738Z,23424
2017-04-29T11:09:57.738Z,22240
2017-04-29T11:10:52.794Z,21280
2017-04-29T11:11:53.814Z,20736
2017-04-29T11:12:42.984Z,20768
2017-04-29T11:13:36.938Z,20864
2017-04-29T11:14:30.948Z,21728
2017-04-29T11:15:31.038Z,22368
2017-04-29T11:16:25.083Z,23040
2017-04-29T11:17:19.162Z,23840
2017-04-29T11:18:13.186Z,24192
2017-04-29T11:19:07.230Z,24768
2017-04-29T11:19:56.284Z,25376
2017-04-29T11:20:45.333Z,26368
2017-04-29T11:21:40.383Z,27072
2017-04-29T11:22:29.429Z,27584
2017-04-29T11:23:23.569Z,28192
2017-04-29T11:24:17.479Z,29024
2017-04-29T11:25:17.605Z,29600
2017-04-29T11:26:11.633Z,30496
2017-04-29T11:27:06.753Z,30944
2017-04-29T11:28:00.676Z,31104
2017-04-29T11:28:55.827Z,31232
2017-04-29T11:29:50.844Z,31200
2017-04-29T11:30:44.828Z,30880
2017-04-29T11:31:38.860Z,30144
2017-04-29T11:32:27.945Z,30560
2017-04-29T11:33:21.979Z,66272
2017-04-29T11:34:17.074Z,102304
2017-04-29T11:35:17.090Z,96640
2017-04-29T11:36:11.111Z,93472
2017-04-29T11:37:11.210Z,93728
2017-04-29T11:37:59.213Z,96736
2017-04-29T11:38:53.291Z,105408
2017-04-29T11:39:41.316Z,110624
2017-04-29T11:40:36.399Z,35744
2017-04-29T11:41:25.488Z,34688
2017-04-29T11:42:25.471Z,34784
2017-04-29T11:43:13.499Z,33984
2017-04-29T11:44:08.578Z,32608
2017-04-29T11:45:03.691Z,32064
2017-04-29T11:45:57.681Z,31392
2017-04-29T11:46:52.719Z,30432
2017-04-29T11:47:52.776Z,29408
2017-04-29T11:48:47.840Z,28224
2017-04-29T11:49:36.873Z,27456
2017-04-29T11:50:31.969Z,26656
2017-04-29T11:51:26.025Z,26112
2017-04-29T11:52:20.045Z,25888
2017-04-29T11:53:14.085Z,25760
2017-04-29T11:54:09.148Z,25920
2017-04-29T11:54:58.401Z,26304
2017-04-29T11:55:53.290Z,27136
2017-04-29T11:56:47.287Z,28096
2017-04-29T11:57:36.346Z,28960
2017-04-29T11:58:30.388Z,29792
2017-04-29T11:59:24.953Z,30752
2017-04-29T12:00:18.494Z,31296
2017-04-29T12:01:13.565Z,32448
2017-04-29T12:02:07.638Z,33248